createdAt,value
2018-04-25T00:00:06.475Z,982.41
2018-04-25T00:02:36.715Z,982.38
2018-04-25T00:03:57.725Z,982.38
2018-04-25T00:04:36.729Z,982.35
2018-04-25T00:05:36.722Z,982.35
2018-04-25T00:06:36.323Z,982.35
2018-04-25T00:07:37.223Z,982.36
2018-04-25T00:08:39.654Z,982.33
2018-04-25T00:09:37.224Z,982.37
2018-04-25T00:10:37.728Z,982.33
2018-04-25T00:11:58.724Z,982.30
2018-04-25T00:12:38.720Z,982.30
2018-04-25T00:14:00.656Z,982.31
2018-04-25T00:14:38.222Z,982.32
2018-04-25T00:15:44.224Z,982.30
2018-04-25T00:16:38.222Z,982.26
2018-04-25T00:17:59.222Z,982.24
2018-04-25T00:18:38.721Z,982.27
2018-04-25T00:19:38.750Z,982.19
2018-04-25T00:20:38.721Z,982.22
2018-04-25T00:21:38.734Z,982.18
2018-04-25T00:24:10.476Z,982.19
2018-04-25T00:25:10.485Z,982.21
2018-04-25T00:26:09.964Z,982.19
2018-04-25T00:27:31.045Z,982.16
2018-04-25T00:28:12.425Z,982.13
2018-04-25T00:29:32.467Z,982.12
2018-04-25T00:30:31.990Z,982.07
2018-04-25T00:31:10.982Z,982.10
2018-04-25T00:32:17.561Z,982.05
2018-04-25T00:33:11.480Z,981.99
2018-04-25T00:34:13.481Z,981.99
2018-04-25T00:35:11.479Z,982.10
2018-04-25T00:36:17.980Z,982.01
2018-04-25T00:37:32.204Z,982.02
2018-04-25T00:38:11.980Z,982.03
2018-04-25T00:39:11.981Z,982.03
2018-04-25T00:40:13.932Z,982.06
2018-04-25T00:41:33.483Z,982.05
2018-04-25T00:42:12.482Z,982.03
2018-04-25T00:43:12.481Z,982.03
2018-04-25T00:44:12.485Z,982.05
2018-04-25T00:45:12.081Z,982.01
2018-04-25T00:47:44.335Z,981.99
2018-04-25T00:49:11.338Z,982.01
2018-04-25T00:49:44.344Z,981.99
2018-04-25T00:50:43.932Z,982.02
2018-04-25T00:51:44.839Z,982.04
2018-04-25T00:52:50.839Z,982.04
2018-04-25T00:53:44.847Z,982.05
2018-04-25T00:55:06.339Z,982.08
2018-04-25T00:55:47.271Z,982.04
2018-04-25T00:56:46.800Z,982.01
2018-04-25T00:58:06.338Z,982.05
2018-04-25T00:58:45.339Z,982.03
2018-04-25T00:59:51.838Z,982.01
2018-04-25T01:00:51.839Z,981.98
2018-04-25T01:01:47.839Z,981.99
2018-04-25T01:02:45.838Z,981.96
2018-04-25T01:03:47.336Z,981.96
2018-04-25T01:04:46.338Z,981.95
2018-04-25T01:05:46.337Z,981.93
2018-04-25T01:06:46.338Z,981.86
2018-04-25T01:07:46.839Z,981.92
2018-04-25T01:08:46.839Z,981.91
2018-04-25T01:09:46.842Z,981.83
2018-04-25T01:10:47.340Z,981.86
2018-04-25T01:11:47.443Z,981.87
2018-04-25T01:12:47.342Z,981.88
2018-04-25T01:13:47.345Z,981.81
2018-04-25T01:14:47.336Z,981.80
2018-04-25T01:17:19.106Z,981.81
2018-04-25T01:18:19.104Z,981.79
2018-04-25T01:19:19.101Z,981.78
2018-04-25T01:20:18.736Z,981.78
2018-04-25T01:21:20.536Z,981.79
2018-04-25T01:22:19.604Z,981.75
2018-04-25T01:23:19.601Z,981.73
2018-04-25T01:24:20.102Z,981.72
2018-04-25T01:25:21.052Z,981.71
2018-04-25T01:26:20.103Z,981.71
2018-04-25T01:27:20.112Z,981.71
2018-04-25T01:28:20.109Z,981.73
2018-04-25T01:29:19.711Z,981.70
2018-04-25T01:31:51.961Z,981.66
2018-04-25T01:32:51.971Z,981.66
2018-04-25T01:33:52.969Z,981.67
2018-04-25T01:35:13.470Z,981.66
2018-04-25T01:35:51.701Z,981.64
2018-04-25T01:36:52.468Z,981.62
2018-04-25T01:37:52.967Z,981.60
2018-04-25T01:38:52.071Z,981.63
2018-04-25T01:39:52.967Z,981.61
2018-04-25T01:40:52.969Z,981.60
2018-04-25T01:41:52.973Z,981.61
2018-04-25T01:42:52.589Z,981.57
2018-04-25T01:43:53.467Z,981.56
2018-04-25T01:44:53.468Z,981.54
2018-04-25T01:45:53.461Z,981.56
2018-04-25T01:47:14.964Z,981.54
2018-04-25T01:48:14.969Z,981.49
2018-04-25T01:49:14.973Z,981.48
2018-04-25T01:49:53.963Z,981.47
2018-04-25T01:52:25.708Z,981.46
2018-04-25T01:53:25.719Z,981.48
2018-04-25T01:54:26.219Z,981.46
2018-04-25T01:55:26.213Z,981.42
2018-04-25T01:56:26.214Z,981.41
2018-04-25T01:57:26.215Z,981.42
2018-04-25T01:58:40.714Z,981.41
2018-04-25T01:59:26.717Z,981.34
2018-04-25T02:01:58.207Z,981.30
2018-04-25T02:02:58.214Z,981.30
2018-04-25T02:03:58.215Z,981.34
2018-04-25T02:04:58.715Z,981.34
2018-04-25T02:05:58.710Z,981.37
2018-04-25T02:06:58.748Z,981.33
2018-04-25T02:07:58.717Z,981.35
2018-04-25T02:09:20.214Z,981.35
2018-04-25T02:09:59.217Z,981.31
2018-04-25T02:10:58.573Z,981.29
2018-04-25T02:11:59.244Z,981.30
2018-04-25T02:12:59.719Z,981.25
2018-04-25T02:13:59.713Z,981.29
2018-04-25T02:14:59.713Z,981.29
2018-04-25T02:15:59.716Z,981.27
2018-04-25T02:18:31.466Z,981.22
2018-04-25T02:19:30.820Z,981.21
2018-04-25T02:20:31.481Z,981.19
2018-04-25T02:21:52.976Z,981.21
2018-04-25T02:22:52.192Z,981.16
2018-04-25T02:23:31.976Z,981.18
2018-04-25T02:24:31.981Z,981.16
2018-04-25T02:25:32.476Z,981.17
2018-04-25T02:26:32.476Z,981.19
2018-04-25T02:27:33.476Z,981.19
2018-04-25T02:28:32.477Z,981.16
2018-04-25T02:29:32.976Z,981.15
2018-04-25T02:30:32.980Z,981.15
2018-04-25T02:31:32.975Z,981.13
2018-04-25T02:32:32.975Z,981.09
2018-04-25T02:33:33.480Z,981.09
2018-04-25T02:34:33.484Z,981.09
2018-04-25T02:35:53.812Z,981.07
2018-04-25T02:36:33.475Z,981.07
2018-04-25T02:37:54.976Z,981.05
2018-04-25T02:38:40.972Z,981.08
2018-04-25T02:39:39.977Z,981.05
2018-04-25T02:40:54.977Z,981.07
2018-04-25T02:41:55.474Z,981.03
2018-04-25T02:42:34.720Z,981.04
2018-04-25T02:43:40.475Z,981.00
2018-04-25T02:44:34.479Z,981.03
2018-04-25T02:45:55.977Z,981.03
2018-04-25T02:46:34.975Z,981.02
2018-04-25T02:47:55.907Z,981.03
2018-04-25T02:50:06.303Z,981.03
2018-04-25T02:51:07.999Z,981.00
2018-04-25T02:52:29.047Z,980.99
2018-04-25T02:53:07.049Z,980.99
2018-04-25T02:54:28.546Z,980.98
2018-04-25T02:55:07.543Z,980.99
2018-04-25T02:56:07.543Z,981.02
2018-04-25T02:57:07.543Z,981.04
2018-04-25T02:58:29.052Z,981.07
2018-04-25T02:59:08.044Z,981.06
2018-04-25T03:00:29.042Z,981.07
2018-04-25T03:01:08.043Z,981.05
2018-04-25T03:02:08.543Z,981.06
2018-04-25T03:03:29.543Z,981.04
2018-04-25T03:04:08.585Z,981.05
2018-04-25T03:05:08.543Z,981.08
2018-04-25T03:06:30.048Z,981.07
2018-04-25T03:07:09.041Z,981.07
2018-04-25T03:08:09.118Z,981.06
2018-04-25T03:09:09.043Z,981.03
2018-04-25T03:10:10.975Z,981.03
2018-04-25T03:11:09.572Z,981.07
2018-04-25T03:12:09.542Z,981.07
2018-04-25T03:13:09.543Z,981.05
2018-04-25T03:14:31.045Z,981.01
2018-04-25T03:15:10.049Z,980.99
2018-04-25T03:16:31.042Z,981.01
2018-04-25T03:17:12.516Z,981.07
2018-04-25T03:19:43.776Z,981.04
2018-04-25T03:20:41.786Z,981.00
2018-04-25T03:22:02.788Z,980.97
2018-04-25T03:22:41.383Z,980.94
2018-04-25T03:23:42.284Z,980.97
2018-04-25T03:24:42.282Z,980.92
2018-04-25T03:25:42.287Z,980.91
2018-04-25T03:28:35.520Z,980.94
2018-04-25T03:29:14.527Z,980.96
2018-04-25T03:30:14.539Z,980.96
2018-04-25T03:31:14.169Z,980.99
2018-04-25T03:32:15.027Z,981.02
2018-04-25T03:33:36.027Z,981.06
2018-04-25T03:34:15.060Z,981.07
2018-04-25T03:35:36.524Z,981.11
2018-04-25T03:36:36.524Z,981.08
2018-04-25T03:37:15.527Z,981.06
2018-04-25T03:38:15.001Z,981.09
2018-04-25T03:39:16.036Z,981.06
2018-04-25T03:40:37.028Z,981.10
2018-04-25T03:41:16.029Z,981.10
2018-04-25T03:42:16.025Z,981.09
2018-04-25T03:44:47.776Z,981.04
2018-04-25T03:45:47.783Z,981.04
2018-04-25T03:46:47.785Z,981.09
2018-04-25T03:47:48.284Z,981.05
2018-04-25T03:49:09.283Z,981.09
2018-04-25T03:49:48.283Z,981.06
2018-04-25T03:50:48.283Z,981.08
2018-04-25T03:51:48.783Z,981.06
2018-04-25T03:52:48.795Z,981.03
2018-04-25T03:53:48.780Z,981.01
2018-04-25T03:54:48.782Z,980.99
2018-04-25T03:55:49.285Z,981.00
2018-04-25T03:56:49.284Z,981.00
2018-04-25T03:57:50.223Z,981.00
2018-04-25T03:58:49.286Z,981.05
2018-04-25T03:59:49.283Z,981.03
2018-04-25T04:01:10.784Z,981.05
2018-04-25T04:01:49.784Z,981.02
2018-04-25T04:02:49.794Z,981.02
2018-04-25T04:03:50.779Z,981.02
2018-04-25T04:04:50.281Z,981.02
2018-04-25T04:07:21.649Z,981.05
2018-04-25T04:08:21.662Z,981.00
2018-04-25T04:09:21.654Z,980.98
2018-04-25T04:10:22.154Z,980.97
2018-04-25T04:11:22.153Z,980.99
2018-04-25T04:12:22.153Z,980.95
2018-04-25T04:13:22.153Z,980.96
2018-04-25T04:14:22.654Z,980.97
2018-04-25T04:15:22.654Z,980.98
2018-04-25T04:16:22.653Z,980.94
2018-04-25T04:17:22.729Z,980.95
2018-04-25T04:18:23.153Z,980.93
2018-04-25T04:19:43.376Z,980.95
2018-04-25T04:20:22.472Z,980.94
2018-04-25T04:21:23.153Z,980.89
2018-04-25T04:22:23.154Z,980.85
2018-04-25T04:23:23.652Z,980.88
2018-04-25T04:24:23.656Z,980.85
2018-04-25T04:25:23.653Z,980.86
2018-04-25T04:26:23.655Z,980.82
2018-04-25T04:27:45.153Z,980.82
2018-04-25T04:28:25.127Z,980.75
2018-04-25T04:29:24.153Z,980.78
2018-04-25T04:30:24.153Z,980.78
2018-04-25T04:31:24.653Z,980.78
2018-04-25T04:32:24.655Z,980.78
2018-04-25T04:33:24.652Z,980.79
2018-04-25T04:34:24.653Z,980.79
2018-04-25T04:35:46.155Z,980.79
2018-04-25T04:36:47.653Z,980.78
2018-04-25T04:37:25.151Z,980.81
2018-04-25T04:38:25.161Z,980.79
2018-04-25T04:39:46.659Z,980.78
2018-04-25T04:40:25.654Z,980.81
2018-04-25T04:41:27.085Z,980.80
2018-04-25T04:42:25.653Z,980.81
2018-04-25T04:43:27.120Z,980.81
2018-04-25T04:44:32.160Z,980.79
2018-04-25T04:45:27.151Z,980.78
2018-04-25T04:46:26.156Z,980.79
2018-04-25T04:48:57.924Z,980.80
2018-04-25T04:49:57.921Z,980.81
2018-04-25T04:50:57.920Z,980.82
2018-04-25T04:51:58.430Z,980.81
2018-04-25T04:53:19.426Z,980.79
2018-04-25T04:54:19.421Z,980.75
2018-04-25T04:54:59.431Z,980.78
2018-04-25T04:55:58.920Z,980.76
2018-04-25T04:56:58.920Z,980.77
2018-04-25T04:57:58.922Z,980.74
2018-04-25T04:58:58.923Z,980.73
2018-04-25T04:59:58.518Z,980.76
2018-04-25T05:00:59.420Z,980.71
2018-04-25T05:01:59.432Z,980.72
2018-04-25T05:02:59.429Z,980.72
2018-04-25T05:03:59.920Z,980.69
2018-04-25T05:04:59.142Z,980.73
2018-04-25T05:05:59.918Z,980.71
2018-04-25T05:07:20.921Z,980.70
2018-04-25T05:08:20.590Z,980.74
2018-04-25T05:09:00.927Z,980.73
2018-04-25T05:10:21.425Z,980.70
2018-04-25T05:11:01.853Z,980.70
2018-04-25T05:12:00.927Z,980.70
2018-04-25T05:13:21.928Z,980.72
2018-04-25T05:14:00.922Z,980.71
2018-04-25T05:15:00.927Z,980.70
2018-04-25T05:16:00.920Z,980.71
2018-04-25T05:18:46.661Z,980.68
2018-04-25T05:21:04.158Z,980.67
2018-04-25T05:22:04.185Z,980.66
2018-04-25T05:23:04.167Z,980.64
2018-04-25T05:24:25.770Z,980.60
2018-04-25T05:26:57.039Z,980.64
2018-04-25T05:27:36.046Z,980.69
2018-04-25T05:28:37.541Z,980.71
2018-04-25T05:31:07.922Z,980.67
2018-04-25T05:32:33.348Z,980.67
2018-04-25T05:33:07.916Z,980.71
2018-04-25T05:34:29.416Z,980.71
2018-04-25T05:35:08.417Z,980.65
2018-04-25T05:36:29.415Z,980.67
2018-04-25T05:37:08.413Z,980.66
2018-04-25T05:39:40.171Z,980.68
2018-04-25T05:40:40.180Z,980.69
2018-04-25T05:41:40.675Z,980.69
2018-04-25T05:42:40.675Z,980.67
2018-04-25T05:43:40.034Z,980.69
2018-04-25T05:44:40.683Z,980.69
2018-04-25T05:45:43.108Z,980.64
2018-04-25T05:46:43.175Z,980.63
2018-04-25T05:47:40.420Z,980.63
2018-04-25T05:50:12.002Z,980.66
2018-04-25T05:51:33.679Z,980.70
2018-04-25T05:52:12.679Z,980.64
2018-04-25T05:53:13.179Z,980.68
2018-04-25T05:54:34.179Z,980.68
2018-04-25T05:55:34.179Z,980.70
2018-04-25T05:56:36.115Z,980.73
2018-04-25T05:59:11.917Z,980.76
2018-04-25T05:59:44.921Z,980.77
2018-04-25T06:00:51.430Z,980.76
2018-04-25T06:01:45.424Z,980.73
2018-04-25T06:02:51.420Z,980.76
2018-04-25T06:03:45.424Z,980.78
2018-04-25T06:06:38.212Z,980.76
2018-04-25T06:07:16.695Z,980.75
2018-04-25T06:09:48.942Z,980.75
2018-04-25T06:10:49.950Z,980.76
2018-04-25T06:12:10.450Z,980.73
2018-04-25T06:12:48.674Z,980.72
2018-04-25T06:13:53.382Z,980.77
2018-04-25T06:14:49.447Z,980.75
2018-04-25T06:15:51.948Z,980.74
2018-04-25T06:16:49.175Z,980.75
2018-04-25T06:17:49.948Z,980.77
2018-04-25T06:18:49.948Z,980.76
2018-04-25T06:19:52.448Z,980.74
2018-04-25T06:20:50.448Z,980.77
2018-04-25T06:21:50.451Z,980.74
2018-04-25T06:22:51.457Z,980.69
2018-04-25T06:26:53.630Z,980.79
2018-04-25T06:27:53.637Z,980.72
2018-04-25T06:28:53.637Z,980.73
2018-04-25T06:29:54.144Z,980.76
2018-04-25T06:30:54.132Z,980.74
2018-04-25T06:31:56.137Z,980.74
2018-04-25T06:32:54.136Z,980.73
2018-04-25T06:34:15.649Z,980.70
2018-04-25T06:35:08.633Z,980.76
2018-04-25T06:35:54.638Z,980.74
2018-04-25T06:37:15.637Z,980.74
2018-04-25T06:37:55.140Z,980.76
2018-04-25T06:38:55.198Z,980.75
2018-04-25T06:39:55.138Z,980.75
2018-04-25T06:40:57.569Z,980.71
2018-04-25T06:41:55.137Z,980.70
2018-04-25T06:44:53.961Z,980.71
2018-04-25T06:46:58.881Z,980.70
2018-04-25T06:47:58.893Z,980.62
2018-04-25T06:48:58.896Z,980.67
2018-04-25T06:49:59.389Z,980.65
2018-04-25T06:50:58.616Z,980.66
2018-04-25T06:51:59.395Z,980.72
2018-04-25T06:53:00.332Z,980.69
2018-04-25T06:53:59.890Z,980.66
2018-04-25T06:56:32.749Z,980.68
2018-04-25T06:57:30.725Z,980.69
2018-04-25T06:58:51.805Z,980.68
2018-04-25T06:59:30.910Z,980.64
2018-04-25T07:02:03.179Z,980.65
2018-04-25T07:03:17.177Z,980.64
2018-04-25T07:04:02.657Z,980.64
2018-04-25T07:06:34.910Z,980.65
2018-04-25T07:07:34.909Z,980.73
2018-04-25T07:08:57.342Z,980.69
2018-04-25T07:11:06.688Z,980.73
2018-04-25T07:12:08.174Z,980.70
2018-04-25T07:14:39.760Z,980.65
2018-04-25T07:15:38.296Z,980.67
2018-04-25T07:16:38.314Z,980.68
2018-04-25T07:17:38.799Z,980.69
2018-04-25T07:18:38.799Z,980.71
2018-04-25T07:19:38.833Z,980.60
2018-04-25T07:20:38.808Z,980.59
2018-04-25T07:23:11.494Z,980.69
2018-04-25T07:24:11.995Z,980.68
2018-04-25T07:25:10.562Z,980.69
2018-04-25T07:26:10.562Z,980.71
2018-04-25T07:27:17.062Z,980.72
2018-04-25T07:28:11.067Z,980.69
2018-04-25T07:29:11.058Z,980.70
2018-04-25T07:30:11.060Z,980.77
2018-04-25T07:31:11.563Z,980.74
2018-04-25T07:32:25.567Z,980.73
2018-04-25T07:33:11.565Z,980.74
2018-04-25T07:34:11.568Z,980.73
2018-04-25T07:35:12.062Z,980.77
2018-04-25T07:36:18.068Z,980.69
2018-04-25T07:37:11.402Z,980.72
2018-04-25T07:38:12.063Z,980.73
2018-04-25T07:39:11.668Z,980.72
2018-04-25T07:40:12.566Z,980.76
2018-04-25T07:41:12.562Z,980.75
2018-04-25T07:42:12.561Z,980.73
2018-04-25T07:43:13.063Z,980.78
2018-04-25T07:44:13.068Z,980.78
2018-04-25T07:45:12.427Z,980.69
2018-04-25T07:46:13.063Z,980.79
2018-04-25T07:47:14.494Z,980.73
2018-04-25T07:48:13.559Z,980.68
2018-04-25T07:49:13.558Z,980.76
2018-04-25T07:50:13.037Z,980.69
2018-04-25T07:51:15.528Z,980.71
2018-04-25T07:52:14.134Z,980.71
2018-04-25T07:53:14.064Z,980.69
2018-04-25T07:54:15.030Z,980.73
2018-04-25T07:55:13.620Z,980.69
2018-04-25T07:56:28.570Z,980.74
2018-04-25T07:57:13.791Z,980.76
2018-04-25T07:58:13.890Z,980.78
2018-04-25T07:59:14.559Z,980.75
2018-04-25T08:00:14.993Z,980.76
2018-04-25T08:01:38.061Z,980.87
2018-04-25T08:02:17.011Z,980.81
2018-04-25T08:03:14.416Z,980.83
2018-04-25T08:07:06.686Z,980.92
2018-04-25T08:07:43.721Z,980.91
2018-04-25T08:09:10.693Z,980.95
2018-04-25T08:10:05.192Z,980.90
2018-04-25T08:10:44.193Z,980.92
2018-04-25T08:11:44.194Z,980.90
2018-04-25T08:12:44.194Z,980.95
2018-04-25T08:13:47.125Z,980.93
2018-04-25T08:14:43.913Z,980.95
2018-04-25T08:15:44.694Z,980.92
2018-04-25T08:16:44.692Z,980.97
2018-04-25T08:17:47.198Z,980.89
2018-04-25T08:18:45.196Z,980.93
2018-04-25T08:19:44.537Z,980.88
2018-04-25T08:20:44.639Z,980.91
2018-04-25T08:21:45.691Z,980.90
2018-04-25T08:22:51.744Z,980.93
2018-04-25T08:23:44.933Z,980.91
2018-04-25T08:24:45.692Z,980.85
2018-04-25T08:25:45.169Z,980.90
2018-04-25T08:26:53.124Z,980.91
2018-04-25T08:28:06.393Z,980.99
2018-04-25T08:28:46.193Z,981.02
2018-04-25T08:29:47.192Z,980.98
2018-04-25T08:30:46.692Z,980.91
2018-04-25T08:31:46.692Z,981.05
2018-04-25T08:33:09.654Z,981.04
2018-04-25T08:33:46.698Z,981.04
2018-04-25T08:35:07.303Z,980.97
2018-04-25T08:35:47.193Z,981.06
2018-04-25T08:38:18.704Z,981.08
2018-04-25T08:39:18.793Z,981.12
2018-04-25T08:40:18.342Z,981.03
2018-04-25T08:41:22.643Z,981.04
2018-04-25T08:42:19.240Z,981.10
2018-04-25T08:43:19.715Z,981.10
2018-04-25T08:45:50.981Z,981.19
2018-04-25T08:47:11.990Z,981.12
2018-04-25T08:47:50.590Z,981.14
2018-04-25T08:48:51.492Z,981.21
2018-04-25T08:49:52.483Z,981.13
2018-04-25T08:50:51.481Z,981.08
2018-04-25T08:51:51.986Z,981.16
2018-04-25T08:53:18.991Z,981.03
2018-04-25T08:53:51.984Z,981.19
2018-04-25T08:54:51.986Z,981.22
2018-04-25T08:55:51.604Z,981.15
2018-04-25T08:57:06.482Z,981.12
2018-04-25T08:57:52.501Z,981.18
2018-04-25T08:59:13.564Z,981.20
2018-04-25T08:59:52.088Z,981.20
2018-04-25T09:02:24.356Z,981.21
2018-04-25T09:03:24.376Z,981.20
2018-04-25T09:04:25.841Z,981.23
2018-04-25T09:05:30.862Z,981.22
2018-04-25T09:06:24.860Z,981.20
2018-04-25T09:07:24.338Z,981.23
2018-04-25T09:11:49.343Z,981.14
2018-04-25T09:12:30.349Z,981.26
2018-04-25T09:13:28.353Z,981.16
2018-04-25T09:14:30.848Z,981.29
2018-04-25T09:15:28.137Z,981.36
2018-04-25T09:16:28.849Z,981.24
2018-04-25T09:17:30.308Z,981.26
2018-04-25T09:18:31.359Z,981.30
2018-04-25T09:19:31.353Z,981.31
2018-04-25T09:20:32.284Z,981.25
2018-04-25T09:23:00.862Z,981.31
2018-04-25T09:24:00.218Z,981.23
2018-04-25T09:25:00.866Z,981.22
2018-04-25T09:26:00.461Z,981.18
2018-04-25T09:28:53.720Z,981.18
2018-04-25T09:29:38.727Z,981.21
2018-04-25T09:30:32.731Z,981.16
2018-04-25T09:31:56.201Z,981.17
2018-04-25T09:34:05.060Z,981.10
2018-04-25T09:35:04.594Z,981.14
2018-04-25T09:36:04.590Z,981.17
2018-04-25T09:37:27.550Z,981.05
2018-04-25T09:38:07.094Z,981.06
2018-04-25T09:39:27.533Z,981.13
2018-04-25T09:41:58.484Z,981.36
2018-04-25T09:42:36.019Z,981.33
2018-04-25T09:43:37.060Z,981.42
2018-04-25T09:44:38.484Z,981.31
2018-04-25T09:45:37.053Z,981.35
2018-04-25T09:46:37.137Z,981.36
2018-04-25T09:47:39.556Z,981.35
2018-04-25T09:48:36.793Z,981.44
2018-04-25T09:49:58.551Z,981.45
2018-04-25T09:50:37.560Z,981.49
2018-04-25T09:51:44.048Z,981.52
2018-04-25T09:54:10.869Z,981.58
2018-04-25T09:55:09.403Z,981.53
2018-04-25T09:56:09.006Z,981.55
2018-04-25T09:58:41.259Z,981.54
2018-04-25T10:01:40.708Z,981.56
2018-04-25T10:04:07.386Z,981.53
2018-04-25T10:05:05.385Z,981.68
2018-04-25T10:05:44.367Z,981.50
2018-04-25T10:11:42.805Z,981.50
2018-04-25T10:12:42.813Z,981.47
2018-04-25T10:13:19.812Z,981.43
2018-04-25T10:14:21.252Z,981.33
2018-04-25T10:15:20.343Z,981.37
2018-04-25T10:16:20.309Z,981.35
2018-04-25T10:18:53.830Z,981.45
2018-04-25T10:20:05.833Z,981.34
2018-04-25T10:20:51.833Z,981.36
2018-04-25T10:21:51.435Z,981.32
2018-04-25T10:23:13.334Z,981.32
2018-04-25T10:23:52.349Z,981.41
2018-04-25T10:29:31.123Z,981.21
2018-04-25T10:30:27.071Z,981.22
2018-04-25T10:31:27.719Z,981.29
2018-04-25T10:32:30.191Z,981.24
2018-04-25T10:33:49.196Z,981.33
2018-04-25T10:34:29.643Z,981.27
2018-04-25T10:35:29.193Z,981.31
2018-04-25T10:37:59.943Z,981.45
2018-04-25T10:38:59.999Z,981.33
2018-04-25T10:41:45.709Z,981.26
2018-04-25T10:42:31.720Z,981.31
2018-04-25T10:43:31.720Z,981.37
2018-04-25T10:44:31.337Z,981.26
2018-04-25T10:45:31.439Z,981.21
2018-04-25T10:46:56.223Z,981.25
2018-04-25T10:47:32.221Z,981.24
2018-04-25T10:50:03.984Z,981.38
2018-04-25T10:51:06.922Z,981.32
2018-04-25T10:52:04.488Z,981.36
2018-04-25T10:54:49.866Z,981.44
2018-04-25T10:55:38.807Z,981.43
2018-04-25T10:56:35.873Z,981.49
2018-04-25T10:57:42.373Z,981.43
2018-04-25T10:58:37.828Z,981.51
2018-04-25T10:59:36.392Z,981.56
2018-04-25T11:00:35.769Z,981.62
2018-04-25T11:01:36.376Z,981.75
2018-04-25T11:02:59.391Z,981.80
2018-04-25T11:03:36.875Z,981.80
2018-04-25T11:04:58.875Z,981.97
2018-04-25T11:05:38.877Z,981.98
2018-04-25T11:06:58.383Z,982.03
2018-04-25T11:07:51.393Z,981.99
2018-04-25T11:08:37.385Z,982.00
2018-04-25T11:09:37.443Z,982.00
2018-04-25T11:12:10.562Z,982.06
2018-04-25T11:13:29.514Z,982.12
2018-04-25T11:15:09.096Z,982.20
2018-04-25T11:16:09.142Z,982.04
2018-04-25T11:17:09.107Z,982.03
2018-04-25T11:18:09.590Z,981.98
2018-04-25T11:19:10.045Z,981.98
2018-04-25T11:20:09.590Z,981.85
2018-04-25T11:22:09.594Z,982.97
2018-04-25T11:23:11.074Z,983.03
2018-04-25T11:24:10.096Z,982.05
2018-04-25T11:25:10.105Z,982.17
2018-04-25T11:26:10.509Z,981.94
2018-04-25T11:27:10.072Z,981.94
2018-04-25T11:35:48.913Z,982.11
2018-04-25T11:36:50.348Z,982.10
2018-04-25T11:37:48.459Z,982.14
2018-04-25T11:41:58.641Z,982.23
2018-04-25T11:44:38.022Z,982.24
2018-04-25T11:45:25.989Z,982.21
2018-04-25T11:46:24.021Z,982.23
2018-04-25T11:47:30.538Z,982.18
2018-04-25T11:48:24.521Z,982.15
2018-04-25T11:49:31.519Z,982.19
2018-04-25T11:50:24.522Z,982.18
2018-04-25T11:53:17.272Z,982.14
2018-04-25T11:53:56.284Z,982.15
2018-04-25T11:55:17.785Z,982.14
2018-04-25T11:57:30.662Z,982.16
2018-04-25T11:58:50.662Z,982.11
2018-04-25T11:59:28.693Z,982.11
2018-04-25T12:02:20.694Z,982.22
2018-04-25T12:03:00.454Z,982.53
2018-04-25T12:04:21.464Z,982.65
2018-04-25T12:05:07.015Z,982.38
2018-04-25T12:06:02.953Z,982.52
2018-04-25T12:08:32.504Z,982.40
2018-04-25T12:09:32.472Z,982.71
2018-04-25T12:10:33.930Z,982.32
2018-04-25T12:11:53.966Z,983.13
2018-04-25T12:13:53.304Z,983.13
2018-04-25T12:16:27.098Z,982.55
2018-04-25T12:18:36.540Z,982.35
2018-04-25T12:19:57.486Z,982.35
2018-04-25T12:25:11.931Z,982.34
2018-04-25T12:26:33.935Z,982.38
2018-04-25T12:27:11.937Z,982.35
2018-04-25T12:29:45.131Z,982.39
2018-04-25T12:30:44.199Z,982.43
2018-04-25T12:32:11.199Z,982.52
2018-04-25T12:32:44.209Z,982.49
2018-04-25T12:33:44.403Z,982.54
2018-04-25T12:39:10.036Z,982.48
2018-04-25T12:43:14.890Z,982.46
2018-04-25T12:45:44.524Z,982.41
2018-04-25T12:46:44.538Z,982.42
2018-04-25T12:47:47.038Z,982.48
2018-04-25T12:48:46.033Z,982.47
2018-04-25T12:49:45.036Z,982.51
2018-04-25T12:50:44.512Z,982.48
2018-04-25T12:53:16.409Z,982.50
2018-04-25T12:54:17.277Z,982.53
2018-04-25T12:55:31.281Z,982.55
2018-04-25T12:56:17.282Z,982.55
2018-04-25T12:57:16.881Z,982.51
2018-04-25T12:58:17.780Z,982.49
2018-04-25T12:59:17.784Z,982.57
2018-04-25T13:00:17.794Z,982.57
2018-04-25T13:02:49.556Z,982.48
2018-04-25T13:03:52.044Z,982.45
2018-04-25T13:04:50.070Z,982.52
2018-04-25T13:07:41.717Z,982.45
2018-04-25T13:08:21.461Z,982.41
2018-04-25T13:09:43.387Z,982.39
2018-04-25T13:10:21.955Z,982.40
2018-04-25T13:12:53.357Z,982.35
2018-04-25T13:15:30.964Z,982.47
2018-04-25T13:16:24.974Z,982.43
2018-04-25T13:17:25.483Z,982.43
2018-04-25T13:18:24.711Z,982.40
2018-04-25T13:19:25.476Z,982.38
2018-04-25T13:20:46.476Z,982.35
2018-04-25T13:22:57.235Z,982.45
2018-04-25T13:24:18.248Z,982.53
2018-04-25T13:24:57.242Z,982.48
2018-04-25T13:27:29.034Z,982.41
2018-04-25T13:28:29.052Z,982.40
2018-04-25T13:29:28.524Z,982.42
2018-04-25T13:30:56.539Z,982.41
2018-04-25T13:31:50.542Z,982.44
2018-04-25T13:32:50.541Z,982.45
2018-04-25T13:33:29.542Z,982.45
2018-04-25T13:34:36.052Z,982.43
2018-04-25T13:35:30.042Z,982.46
2018-04-25T13:36:51.047Z,982.44
2018-04-25T13:37:30.041Z,982.48
2018-04-25T13:38:29.643Z,982.35
2018-04-25T13:39:31.474Z,982.32
2018-04-25T13:40:44.541Z,982.30
2018-04-25T13:41:44.541Z,982.32
2018-04-25T13:42:51.544Z,982.40
2018-04-25T13:45:29.308Z,982.42
2018-04-25T13:46:02.301Z,982.45
2018-04-25T13:47:24.799Z,982.50
2018-04-25T13:48:23.808Z,982.73
2018-04-25T13:50:49.760Z,982.78
2018-04-25T13:51:35.297Z,982.77
2018-04-25T13:52:55.334Z,982.79
2018-04-25T13:53:34.828Z,982.65
2018-04-25T13:54:34.828Z,982.84
2018-04-25T13:55:34.856Z,982.85
2018-04-25T13:56:57.833Z,982.79
2018-04-25T13:57:35.332Z,982.74
2018-04-25T13:58:35.338Z,982.77
2018-04-25T13:59:35.328Z,982.54
2018-04-25T14:00:35.328Z,982.69
2018-04-25T14:03:28.101Z,982.50
2018-04-25T14:04:07.118Z,982.62
2018-04-25T14:05:06.752Z,982.85
2018-04-25T14:06:07.634Z,982.89
2018-04-25T14:07:09.544Z,982.90
2018-04-25T14:08:07.620Z,982.89
2018-04-25T14:09:31.118Z,982.87
2018-04-25T14:11:38.913Z,982.52
2018-04-25T14:12:39.538Z,982.61
2018-04-25T14:13:39.152Z,982.37
2018-04-25T14:17:42.266Z,982.82
2018-04-25T14:19:04.971Z,982.75
2018-04-25T14:21:14.623Z,982.57
2018-04-25T14:22:14.629Z,982.30
2018-04-25T14:23:14.633Z,982.13
2018-04-25T14:24:15.130Z,982.45
2018-04-25T14:25:37.099Z,982.22
2018-04-25T14:26:17.566Z,982.11
2018-04-25T14:27:18.631Z,982.13
2018-04-25T14:28:15.631Z,982.11
2018-04-25T14:29:36.634Z,982.08
2018-04-25T14:30:17.662Z,982.06
2018-04-25T14:31:15.633Z,982.12
2018-04-25T14:32:18.140Z,982.21
2018-04-25T14:33:22.138Z,982.18
2018-04-25T14:34:16.139Z,982.10
2018-04-25T14:35:37.137Z,982.18
2018-04-25T14:36:16.630Z,982.18
2018-04-25T14:37:16.636Z,982.29
2018-04-25T14:39:16.136Z,982.25
2018-04-25T14:40:16.631Z,982.18
2018-04-25T14:41:16.631Z,982.26
2018-04-25T14:42:16.636Z,982.20
2018-04-25T14:43:16.629Z,982.20
2018-04-25T14:44:16.763Z,982.17
2018-04-25T14:45:17.137Z,982.15
2018-04-25T14:46:18.605Z,982.26
2018-04-25T14:47:17.084Z,982.21
2018-04-25T14:48:17.643Z,982.25
2018-04-25T14:49:17.631Z,982.26
2018-04-25T14:50:17.631Z,982.31
2018-04-25T14:51:17.630Z,982.46
2018-04-25T14:52:17.632Z,982.47
2018-04-25T14:53:18.129Z,982.34
2018-04-25T14:54:18.128Z,982.30
2018-04-25T14:55:18.132Z,982.11
2018-04-25T14:56:18.107Z,982.24
2018-04-25T14:57:18.631Z,982.37
2018-04-25T14:58:18.636Z,982.31
2018-04-25T14:59:18.639Z,982.32
2018-04-25T15:03:17.925Z,982.23
2018-04-25T15:04:15.864Z,982.13
2018-04-25T15:04:50.933Z,982.13